KONT/ONT METAR and TAF weather

Enter ICAO airport designator
Station Type Date Time Source
KONT METAR 2019/10/21 23:53 UTC NOAA

KONT 212353Z 30007KT 270V330 10SM CLR 34/00 A2998 RMK AO2 SLP136 T03390000 10350 20267 55001


Station Type Date Time Source
KONT Decoded METAR 2019/10/21 23:53 UTC NOAA

ONTARIO INTERNATIONAL AIRPORT, CA, United States (KONT) 34-03N 117-35W 275M
Oct 21, 2019 - 07:53 PM EDT / 2019.10.21 2353 UTC
Wind: from the WNW (300 degrees) at 8 MPH (7 KT) (direction variable):0
Visibility: 10 mile(s):0
Sky conditions: clear
Temperature: 93.0 F (33.9 C)
Dew Point: 32.0 F (0.0 C)
Relative Humidity: 11%
Pressure (altimeter): 29.98 in. Hg (1015 hPa)
Pressure tendency: 0.00 inches (0.1 hPa) lower than three hours ago
ob: KONT 212353Z 30007KT 270V330 10SM CLR 34/00 A2998 RMK AO2 SLP136 T03390000 10350 20267 55001
cycle: 0

Station Type Date Time Source
KONT TAF 2019/10/21 18:24 UTC NOAA

TAF KONT 211721Z 2118/2224 VRB04KT P6SM SKC
FM212100 28008KT P6SM SKC
FM220300 VRB04KT P6SM SKC

Example: see airport list